createdAt,value
2022-12-23T00:01:05.983Z,12.27
2022-12-23T00:03:34.726Z,12.80
2022-12-23T00:06:09.462Z,13.67
2022-12-23T00:08:37.401Z,17.30
2022-12-23T00:11:05.989Z,18.83
2022-12-23T00:13:51.949Z,15.30
2022-12-23T00:16:19.595Z,15.30
2022-12-23T00:18:47.228Z,17.63
2022-12-23T00:21:18.286Z,13.37
2022-12-23T00:23:48.293Z,17.20
2022-12-23T00:26:17.514Z,14.83
2022-12-23T00:28:45.651Z,16.33
2022-12-23T00:31:13.964Z,15.37
2022-12-23T00:33:43.466Z,23.10
2022-12-23T00:36:19.034Z,17.70
2022-12-23T00:39:05.146Z,15.97
2022-12-23T00:41:50.553Z,13.90
2022-12-23T00:44:18.155Z,11.47
2022-12-23T00:46:45.802Z,13.07
2022-12-23T00:49:32.426Z,14.83
2022-12-23T00:52:02.024Z,15.20
2022-12-23T00:54:29.781Z,15.20
2022-12-23T00:56:57.323Z,12.83
2022-12-23T00:59:24.857Z,14.03
2022-12-23T01:02:09.854Z,16.07
2022-12-23T01:04:55.207Z,15.60
2022-12-23T01:07:24.831Z,13.43
2022-12-23T01:09:52.401Z,12.93
2022-12-23T01:12:20.131Z,15.13
2022-12-23T01:14:47.763Z,19.50
2022-12-23T01:17:15.925Z,14.90
2022-12-23T01:19:43.577Z,16.30
2022-12-23T01:22:11.144Z,14.80
2022-12-23T01:24:40.093Z,15.30
2022-12-23T01:27:07.676Z,16.83
2022-12-23T01:29:35.248Z,13.20
2022-12-23T01:32:02.903Z,15.07
2022-12-23T01:34:36.459Z,17.23
2022-12-23T01:37:05.110Z,13.17
2022-12-23T01:39:32.666Z,15.03
2022-12-23T01:42:19.753Z,15.27
2022-12-23T01:44:50.736Z,16.87
2022-12-23T01:47:23.541Z,12.13
2022-12-23T01:49:54.151Z,14.50
2022-12-23T01:52:22.519Z,15.63
2022-12-23T01:54:50.313Z,14.90
2022-12-23T01:57:19.278Z,11.10
2022-12-23T02:00:06.757Z,11.60
2022-12-23T02:02:55.555Z,17.07
2022-12-23T02:05:24.858Z,12.77
2022-12-23T02:08:12.178Z,16.57
2022-12-23T02:10:55.289Z,12.50
2022-12-23T02:13:32.293Z,12.97
2022-12-23T02:16:19.244Z,15.17
2022-12-23T02:19:03.057Z,16.37
2022-12-23T02:21:54.033Z,13.20
2022-12-23T02:25:01.680Z,16.27
2022-12-23T02:27:32.790Z,14.50
2022-12-23T02:30:28.150Z,17.37
2022-12-23T02:33:14.087Z,18.27
2022-12-23T02:35:47.280Z,18.57
2022-12-23T02:38:24.437Z,17.23
2022-12-23T02:40:59.907Z,22.53
2022-12-23T02:43:35.423Z,16.13
2022-12-23T02:46:10.817Z,23.67
2022-12-23T02:48:46.074Z,17.93
2022-12-23T02:51:15.958Z,20.27
2022-12-23T02:53:48.734Z,15.53
2022-12-23T02:56:18.657Z,17.60
2022-12-23T02:58:51.215Z,17.30
2022-12-23T03:01:21.626Z,20.83
2022-12-23T03:03:51.495Z,15.90
2022-12-23T03:06:23.830Z,18.27
2022-12-23T03:08:55.673Z,18.57
2022-12-23T03:11:40.073Z,25.13
2022-12-23T03:14:23.929Z,17.77
2022-12-23T03:17:01.382Z,22.23
2022-12-23T03:19:36.076Z,20.83
2022-12-23T03:22:11.169Z,20.30
2022-12-23T03:24:45.662Z,15.87
2022-12-23T03:27:20.006Z,17.03
2022-12-23T03:29:55.446Z,15.83
2022-12-23T03:32:27.183Z,18.17
2022-12-23T03:34:58.724Z,24.47
2022-12-23T03:37:28.826Z,17.20
2022-12-23T03:40:02.679Z,17.93
2022-12-23T03:42:35.556Z,16.53
2022-12-23T03:45:39.279Z,12.17
2022-12-23T03:48:03.957Z,20.10
2022-12-23T03:50:33.063Z,17.37
2022-12-23T03:53:06.543Z,18.03
2022-12-23T03:55:37.579Z,17.37
2022-12-23T03:58:11.287Z,16.07
2022-12-23T04:00:44.808Z,15.63
2022-12-23T04:03:20.339Z,14.63
2022-12-23T04:05:53.713Z,13.87
2022-12-23T04:08:27.243Z,12.03
2022-12-23T04:10:55.216Z,18.53
2022-12-23T04:13:22.751Z,16.83
2022-12-23T04:15:50.615Z,20.17
2022-12-23T04:18:19.672Z,15.30
2022-12-23T04:20:47.269Z,13.90
2022-12-23T04:23:14.868Z,19.17
2022-12-23T04:25:42.525Z,16.30
2022-12-23T04:28:10.157Z,16.23
2022-12-23T04:30:37.788Z,15.60
2022-12-23T04:33:05.353Z,17.30
2022-12-23T04:35:34.196Z,17.73
2022-12-23T04:38:01.758Z,18.00
2022-12-23T04:40:29.279Z,14.23
2022-12-23T04:42:56.798Z,17.00
2022-12-23T04:45:24.259Z,27.50
2022-12-23T04:47:51.769Z,18.73
2022-12-23T04:50:19.371Z,15.67
2022-12-23T04:52:48.221Z,14.80
2022-12-23T04:55:15.784Z,12.90
2022-12-23T04:57:43.350Z,20.70
2022-12-23T05:00:12.033Z,18.57
2022-12-23T05:02:39.663Z,14.40
2022-12-23T05:05:07.758Z,16.77
2022-12-23T05:07:35.283Z,14.63
2022-12-23T05:10:04.405Z,16.67
2022-12-23T05:12:32.594Z,16.03
2022-12-23T05:15:00.189Z,15.07
2022-12-23T05:17:27.806Z,16.40
2022-12-23T05:19:55.264Z,18.33
2022-12-23T05:22:22.798Z,12.67
2022-12-23T05:24:50.396Z,11.47
2022-12-23T05:27:19.584Z,12.13
2022-12-23T05:29:47.184Z,12.70
2022-12-23T05:32:14.695Z,14.23
2022-12-23T05:34:42.286Z,13.33
2022-12-23T05:37:10.007Z,13.47
2022-12-23T05:39:37.592Z,10.20
2022-12-23T05:42:05.543Z,12.63
2022-12-23T05:44:34.634Z,13.57
2022-12-23T05:47:02.606Z,13.53
2022-12-23T05:49:30.195Z,15.87
2022-12-23T05:51:57.713Z,14.73
2022-12-23T05:54:25.391Z,9.50
2022-12-23T05:56:52.962Z,15.87
2022-12-23T05:59:20.567Z,13.23
2022-12-23T06:01:57.323Z,17.77
2022-12-23T06:04:31.131Z,17.73
2022-12-23T06:07:10.593Z,17.87
2022-12-23T06:09:48.044Z,13.40
2022-12-23T06:12:16.831Z,12.13
2022-12-23T06:14:57.168Z,10.97
2022-12-23T06:17:34.266Z,13.93
2022-12-23T06:20:08.257Z,7.30
2022-12-23T06:22:50.568Z,20.27
2022-12-23T06:25:23.627Z,18.10
2022-12-23T06:28:09.580Z,12.53
2022-12-23T06:30:45.154Z,19.30
2022-12-23T06:33:30.391Z,18.63
2022-12-23T06:36:03.536Z,18.03
2022-12-23T06:38:33.659Z,18.40
2022-12-23T06:41:11.396Z,17.27
2022-12-23T06:43:41.469Z,16.87
2022-12-23T06:46:18.191Z,19.37
2022-12-23T06:48:52.428Z,22.43
2022-12-23T06:51:22.587Z,14.67
2022-12-23T06:53:52.976Z,19.70
2022-12-23T06:56:34.219Z,21.53
2022-12-23T07:00:03.844Z,23.33
2022-12-23T07:02:33.767Z,17.40
2022-12-23T07:05:02.845Z,18.67
2022-12-23T07:07:32.180Z,19.63
2022-12-23T07:09:59.997Z,21.43
2022-12-23T07:12:32.187Z,20.17
2022-12-23T07:14:59.957Z,17.53
2022-12-23T07:17:30.020Z,22.70
2022-12-23T07:19:57.591Z,20.67
2022-12-23T07:22:26.495Z,21.23
2022-12-23T07:24:54.967Z,19.30
2022-12-23T07:27:24.899Z,21.10
2022-12-23T07:29:52.938Z,20.70
2022-12-23T07:32:24.974Z,28.50
2022-12-23T07:34:52.810Z,26.27
2022-12-23T07:37:20.662Z,18.17
2022-12-23T07:39:50.263Z,22.13
2022-12-23T07:42:44.336Z,23.43
2022-12-23T07:45:11.596Z,23.80
2022-12-23T07:47:39.280Z,25.60
2022-12-23T07:50:15.415Z,22.03
2022-12-23T07:52:53.268Z,19.20
2022-12-23T07:55:23.252Z,31.90
2022-12-23T07:57:52.911Z,21.30
2022-12-23T08:00:22.797Z,26.07
2022-12-23T08:02:51.730Z,25.73
2022-12-23T08:05:20.129Z,19.40
2022-12-23T08:07:51.024Z,23.27
2022-12-23T08:10:19.334Z,20.17
2022-12-23T08:12:49.119Z,21.20
2022-12-23T08:15:17.457Z,22.00
2022-12-23T08:17:46.672Z,22.50
2022-12-23T08:20:29.038Z,24.63
2022-12-23T08:22:57.110Z,24.27
2022-12-23T08:25:29.779Z,22.13
2022-12-23T08:27:58.963Z,28.17
2022-12-23T08:30:27.011Z,24.10
2022-12-23T08:32:54.846Z,19.80
2022-12-23T08:35:22.400Z,27.13
2022-12-23T08:37:50.478Z,26.10
2022-12-23T08:40:23.256Z,21.77
2022-12-23T08:46:14.510Z,19.80
2022-12-23T08:48:48.646Z,23.73
2022-12-23T08:51:20.119Z,23.20
2022-12-23T08:53:49.167Z,19.73
2022-12-23T08:56:29.122Z,30.30
2022-12-23T08:59:03.146Z,25.03
2022-12-23T09:01:36.587Z,19.53
2022-12-23T09:04:07.782Z,24.53
2022-12-23T09:06:39.290Z,23.70
2022-12-23T09:09:27.526Z,24.67
2022-12-23T09:12:11.759Z,17.27
2022-12-23T09:14:42.260Z,17.37
2022-12-23T09:17:10.002Z,22.00
2022-12-23T09:19:40.036Z,25.33
2022-12-23T09:22:16.642Z,22.60
2022-12-23T09:24:44.226Z,24.57
2022-12-23T09:27:12.539Z,22.40
2022-12-23T09:29:41.877Z,19.00
2022-12-23T09:32:10.032Z,20.20
2022-12-23T09:34:38.477Z,18.10
2022-12-23T09:37:06.066Z,17.07
2022-12-23T09:39:37.515Z,16.10
2022-12-23T09:42:28.879Z,20.23
2022-12-23T09:45:26.672Z,19.77
2022-12-23T09:48:08.247Z,14.77
2022-12-23T09:50:36.294Z,18.80
2022-12-23T09:53:07.469Z,17.60
2022-12-23T09:55:47.287Z,20.37
2022-12-23T09:58:30.359Z,18.90
2022-12-23T10:01:11.738Z,20.40
2022-12-23T10:04:01.249Z,23.53
2022-12-23T10:06:56.320Z,18.23
2022-12-23T10:09:37.689Z,18.23
2022-12-23T10:12:22.215Z,25.50
2022-12-23T10:14:58.843Z,24.47
2022-12-23T10:17:38.816Z,17.07
2022-12-23T10:20:15.271Z,26.33
2022-12-23T10:22:48.845Z,17.80
2022-12-23T10:25:27.148Z,16.77
2022-12-23T10:27:59.152Z,20.03
2022-12-23T10:30:53.884Z,18.77
2022-12-23T10:33:27.890Z,14.80
2022-12-23T10:36:08.700Z,16.43
2022-12-23T10:38:55.233Z,16.10
2022-12-23T10:41:48.012Z,19.03
2022-12-23T10:45:11.037Z,17.43
2022-12-23T10:47:54.381Z,18.87
2022-12-23T10:51:00.815Z,17.53
2022-12-23T10:53:36.722Z,23.87
2022-12-23T11:05:39.198Z,19.83
2022-12-23T11:08:16.095Z,21.97
2022-12-23T11:10:49.992Z,19.13
2022-12-23T11:13:36.834Z,18.27
2022-12-23T11:16:20.900Z,27.73
2022-12-23T11:22:14.474Z,19.23
2022-12-23T11:25:46.939Z,20.83
2022-12-23T11:28:23.547Z,22.43
2022-12-23T11:34:01.388Z,18.97
2022-12-23T11:36:44.042Z,23.20
2022-12-23T11:39:37.761Z,20.43
2022-12-23T11:45:40.228Z,16.03
2022-12-23T11:48:38.495Z,15.37
2022-12-23T11:51:29.734Z,14.03
2022-12-23T11:54:05.947Z,16.17
2022-12-23T11:56:37.832Z,12.33
2022-12-23T11:59:30.288Z,12.90
2022-12-23T12:02:08.758Z,14.53
2022-12-23T12:04:44.864Z,12.67
2022-12-23T12:07:59.525Z,12.27
2022-12-23T12:11:48.740Z,8.83
2022-12-23T13:19:40.129Z,20.10
2022-12-23T13:31:44.043Z,13.53
2022-12-23T13:34:57.695Z,16.60
2022-12-23T14:48:07.634Z,9.10
2022-12-23T14:50:59.262Z,8.07
2022-12-23T14:54:05.079Z,9.73
2022-12-23T15:00:35.692Z,10.47
2022-12-23T15:10:50.468Z,9.07
2022-12-23T15:13:23.352Z,9.50
2022-12-23T15:16:01.269Z,10.03
2022-12-23T15:18:54.799Z,11.50
2022-12-23T15:21:32.299Z,9.90
2022-12-23T15:24:00.751Z,10.57
2022-12-23T15:26:31.426Z,10.30
2022-12-23T15:29:01.188Z,8.07
2022-12-23T15:31:32.052Z,11.67
2022-12-23T15:34:11.707Z,8.20
2022-12-23T15:36:45.319Z,10.57
2022-12-23T15:39:20.905Z,10.40
2022-12-23T15:41:49.238Z,7.63
2022-12-23T15:44:22.196Z,9.57
2022-12-23T15:46:50.664Z,8.63
2022-12-23T15:49:20.585Z,8.70
2022-12-23T15:52:07.810Z,10.03
2022-12-23T15:54:44.933Z,11.07
2022-12-23T15:57:17.346Z,11.73
2022-12-23T15:59:44.962Z,10.83
2022-12-23T16:05:09.953Z,10.70
2022-12-23T16:07:40.195Z,8.93
2022-12-23T16:10:15.322Z,11.43
2022-12-23T16:12:44.332Z,11.70
2022-12-23T16:15:22.778Z,10.20
2022-12-23T16:17:50.290Z,12.87
2022-12-23T16:20:24.863Z,11.43
2022-12-23T16:22:55.092Z,9.87
2022-12-23T16:25:24.987Z,13.47
2022-12-23T16:27:57.358Z,9.67
2022-12-23T16:30:30.273Z,13.07
2022-12-23T16:32:59.691Z,11.17
2022-12-23T16:35:35.712Z,11.90
2022-12-23T16:38:13.817Z,8.33
2022-12-23T16:40:42.573Z,9.40
2022-12-23T16:43:10.415Z,11.00
2022-12-23T16:45:38.424Z,12.23
2022-12-23T16:48:12.134Z,10.03
2022-12-23T16:50:40.968Z,13.33
2022-12-23T16:53:12.726Z,12.80
2022-12-23T16:55:46.203Z,10.90
2022-12-23T16:58:17.925Z,13.07
2022-12-23T17:00:45.835Z,12.07
2022-12-23T17:03:17.252Z,10.90
2022-12-23T17:05:46.910Z,10.40
2022-12-23T17:08:14.726Z,15.50
2022-12-23T17:10:44.483Z,19.70
2022-12-23T17:13:13.640Z,16.33
2022-12-23T17:15:41.110Z,15.93
2022-12-23T17:18:13.613Z,13.13
2022-12-23T17:20:42.044Z,16.70
2022-12-23T17:23:24.120Z,16.27
2022-12-23T17:25:52.163Z,15.20
2022-12-23T17:28:20.682Z,16.27
2022-12-23T17:30:56.051Z,15.23
2022-12-23T17:33:27.675Z,18.43
2022-12-23T17:35:55.911Z,32.40
2022-12-23T17:38:24.965Z,14.50
2022-12-23T17:40:52.695Z,15.93
2022-12-23T17:43:20.237Z,15.83
2022-12-23T17:45:48.154Z,16.10
2022-12-23T17:48:23.137Z,15.73
2022-12-23T17:50:52.946Z,14.80
2022-12-23T17:53:21.180Z,15.23
2022-12-23T17:55:49.966Z,13.37
2022-12-23T17:58:17.470Z,15.60
2022-12-23T18:00:45.211Z,16.10
2022-12-23T18:03:23.021Z,16.63
2022-12-23T18:05:57.255Z,14.57
2022-12-23T18:08:28.692Z,16.20
2022-12-23T18:10:59.033Z,16.73
2022-12-23T18:13:26.613Z,14.33
2022-12-23T18:15:54.158Z,12.97
2022-12-23T18:18:32.064Z,13.77
2022-12-23T18:21:06.463Z,15.60
2022-12-23T18:23:37.183Z,16.33
2022-12-23T18:26:06.301Z,15.30
2022-12-23T18:28:34.138Z,15.20
2022-12-23T18:31:01.901Z,14.97
2022-12-23T18:33:30.376Z,14.80
2022-12-23T18:35:58.396Z,12.93
2022-12-23T18:38:26.031Z,14.40
2022-12-23T18:40:54.870Z,14.80
2022-12-23T18:43:25.580Z,13.83
2022-12-23T18:45:54.269Z,12.50
2022-12-23T18:48:22.727Z,13.50
2022-12-23T18:50:50.291Z,14.83
2022-12-23T18:53:24.710Z,14.17
2022-12-23T18:55:53.620Z,13.90
2022-12-23T18:58:21.481Z,14.43
2022-12-23T19:00:52.669Z,16.67
2022-12-23T19:03:24.040Z,14.30
2022-12-23T19:05:52.812Z,14.17
2022-12-23T19:08:26.780Z,14.83
2022-12-23T19:10:56.085Z,16.97
2022-12-23T19:13:23.910Z,14.17
2022-12-23T19:15:53.142Z,13.67
2022-12-23T19:18:22.621Z,14.83
2022-12-23T19:20:50.512Z,16.63
2022-12-23T19:23:18.101Z,15.07
2022-12-23T19:25:54.539Z,18.57
2022-12-23T19:28:24.760Z,20.80
2022-12-23T19:30:53.891Z,17.37
2022-12-23T19:33:21.573Z,15.47
2022-12-23T19:35:49.167Z,18.27
2022-12-23T19:38:16.997Z,18.73
2022-12-23T19:40:45.033Z,16.10
2022-12-23T19:43:12.616Z,16.10
2022-12-23T19:45:40.226Z,18.87
2022-12-23T19:48:09.267Z,17.90
2022-12-23T19:50:36.932Z,20.20
2022-12-23T19:53:04.620Z,16.70
2022-12-23T19:55:32.294Z,20.20
2022-12-23T19:57:59.884Z,19.40
2022-12-23T20:00:27.638Z,20.63
2022-12-23T20:02:58.901Z,21.57
2022-12-23T20:05:28.203Z,19.07
2022-12-23T20:07:55.739Z,19.67
2022-12-23T20:10:23.375Z,18.43
2022-12-23T20:12:51.053Z,19.33
2022-12-23T20:15:18.622Z,20.03
2022-12-23T20:17:46.255Z,19.87
2022-12-23T20:20:14.113Z,15.67
2022-12-23T20:22:42.965Z,20.33
2022-12-23T20:25:10.918Z,21.57
2022-12-23T20:27:38.951Z,21.07
2022-12-23T20:30:07.847Z,17.47
2022-12-23T20:32:35.409Z,20.40
2022-12-23T20:35:02.999Z,17.70
2022-12-23T20:37:30.491Z,19.90
2022-12-23T20:39:59.452Z,18.20
2022-12-23T20:42:28.004Z,20.87
2022-12-23T20:44:55.570Z,16.07
2022-12-23T20:47:23.089Z,15.93
2022-12-23T20:49:50.642Z,13.17
2022-12-23T20:52:18.213Z,11.30
2022-12-23T20:54:47.224Z,11.83
2022-12-23T20:57:16.198Z,12.20
2022-12-23T20:59:43.895Z,10.37
2022-12-23T21:02:13.637Z,11.53
2022-12-23T21:04:41.390Z,14.07
2022-12-23T21:07:09.120Z,11.37
2022-12-23T21:09:36.926Z,12.63
2022-12-23T21:12:04.783Z,14.13
2022-12-23T21:14:33.847Z,12.23
2022-12-23T21:17:01.695Z,19.03
2022-12-23T21:19:29.414Z,13.67
2022-12-23T21:21:57.940Z,11.97
2022-12-23T21:24:25.688Z,16.00
2022-12-23T21:26:56.861Z,12.23
2022-12-23T21:29:26.076Z,13.80
2022-12-23T21:31:55.946Z,12.63
2022-12-23T21:34:23.665Z,13.50
2022-12-23T21:36:51.341Z,16.20
2022-12-23T21:39:19.833Z,14.60
2022-12-23T21:41:49.155Z,9.43
2022-12-23T21:44:16.700Z,12.57
2022-12-23T21:46:44.554Z,13.60
2022-12-23T21:49:13.614Z,18.83
2022-12-23T21:51:42.062Z,11.37
2022-12-23T21:54:10.427Z,15.90
2022-12-23T21:56:38.935Z,13.37
2022-12-23T21:59:08.252Z,14.17
2022-12-23T22:01:35.748Z,16.27
2022-12-23T22:04:03.273Z,14.93
2022-12-23T22:06:36.524Z,13.97
2022-12-23T22:09:05.280Z,13.97
2022-12-23T22:11:35.384Z,11.33
2022-12-23T22:14:04.895Z,12.70
2022-12-23T22:16:33.403Z,14.33
2022-12-23T22:19:02.584Z,11.43
2022-12-23T22:21:32.939Z,14.20
2022-12-23T22:24:00.535Z,29.30
2022-12-23T22:26:31.847Z,16.10
2022-12-23T22:29:01.133Z,10.30
2022-12-23T22:31:33.696Z,14.70
2022-12-23T22:34:01.415Z,14.07
2022-12-23T22:36:29.099Z,12.70
2022-12-23T22:38:59.836Z,11.60
2022-12-23T22:41:28.852Z,14.43
2022-12-23T22:43:57.142Z,13.20
2022-12-23T22:46:27.912Z,14.97
2022-12-23T22:48:56.578Z,12.03
2022-12-23T22:51:26.426Z,14.87
2022-12-23T22:53:54.333Z,11.83
2022-12-23T22:56:24.850Z,13.43
2022-12-23T22:58:53.736Z,8.77
2022-12-23T23:01:26.085Z,17.47
2022-12-23T23:03:57.325Z,10.80
2022-12-23T23:06:26.645Z,8.90
2022-12-23T23:08:55.173Z,12.80
2022-12-23T23:11:24.735Z,11.87
2022-12-23T23:13:52.733Z,12.37
2022-12-23T23:16:20.418Z,14.07
2022-12-23T23:18:47.946Z,14.67
2022-12-23T23:21:16.028Z,11.10
2022-12-23T23:23:43.556Z,14.87
2022-12-23T23:26:11.656Z,12.53
2022-12-23T23:28:41.104Z,8.13
2022-12-23T23:31:40.407Z,14.13
2022-12-23T23:33:58.125Z,12.03
2022-12-23T23:36:25.695Z,8.87
2022-12-23T23:38:53.442Z,9.47
2022-12-23T23:41:23.809Z,8.30
2022-12-23T23:43:53.167Z,7.97
2022-12-23T23:46:21.076Z,11.67
2022-12-23T23:48:48.977Z,9.87
2022-12-23T23:51:19.092Z,9.17
2022-12-23T23:53:46.641Z,7.60
2022-12-23T23:56:14.187Z,9.50
2022-12-23T23:58:41.722Z,8.80
